Time;durP1;ratioP1;P1;durP2;ratioP2;P2;SDS_P1;SDS_P2;PMS_P1;PMS_P2;Temp;Humidity;BMP_temperature;BMP_pressure;BME280_temperature;BME280_humidity;BME280_pressure;Samples;Min_cycle;Max_cycle;Signal;HPM_P1;HPM_P2
2022/04/27 00:01:49;;;;;;;5.63;3.47;;;8.00;99.90;;;;;;5092581;28;20095;-37
2022/04/27 00:04:14;;;;;;;6.57;2.95;;;7.90;99.90;;;;;;5105105;28;20395;-37
2022/04/27 00:06:40;;;;;;;3.35;2.90;;;7.90;99.90;;;;;;5092508;28;20548;-36
2022/04/27 00:09:06;;;;;;;9.85;3.35;;;7.80;99.90;;;;;;5091830;28;20387;-37
2022/04/27 00:11:32;;;;;;;6.38;3.30;;;7.80;99.90;;;;;;5091778;28;20031;-36
2022/04/27 00:14:00;;;;;;;12.57;3.97;;;7.70;99.90;;;;;;5092059;28;20085;-35
2022/04/27 00:16:26;;;;;;;9.30;3.70;;;7.80;99.90;;;;;;5109380;28;20019;-29
2022/04/27 00:18:52;;;;;;;8.23;4.30;;;7.80;99.90;;;;;;5111030;28;20032;-28
2022/04/27 00:21:18;;;;;;;6.05;3.50;;;7.80;99.90;;;;;;5091202;28;20495;-32
2022/04/27 00:23:43;;;;;;;10.27;4.15;;;7.70;99.90;;;;;;5091723;28;20038;-47
2022/04/27 00:26:09;;;;;;;6.72;3.75;;;7.70;99.90;;;;;;5096564;28;20020;-46
2022/04/27 00:28:35;;;;;;;8.50;3.47;;;7.60;99.90;;;;;;5094171;28;20123;-47
2022/04/27 00:31:01;;;;;;;8.98;3.28;;;7.60;99.90;;;;;;5095577;28;20077;-48
2022/04/27 00:33:26;;;;;;;7.97;3.75;;;7.60;99.90;;;;;;5095944;28;20020;-46
2022/04/27 00:35:52;;;;;;;7.80;3.22;;;7.60;99.90;;;;;;5095933;28;20031;-45
2022/04/27 00:38:18;;;;;;;9.60;3.72;;;7.50;99.90;;;;;;5097310;28;20058;-46
2022/04/27 00:40:44;;;;;;;14.50;4.57;;;7.50;99.90;;;;;;5098718;28;20020;-46
2022/04/27 00:43:13;;;;;;;5.78;3.45;;;7.50;99.90;;;;;;5095595;28;20030;-47
2022/04/27 00:45:39;;;;;;;6.05;3.60;;;7.40;99.90;;;;;;5097396;28;20027;-47
2022/04/27 00:48:05;;;;;;;9.20;4.55;;;7.40;99.90;;;;;;5096296;28;20081;-47
2022/04/27 00:50:31;;;;;;;4.97;3.67;;;7.40;99.90;;;;;;5094256;28;20509;-47
2022/04/27 00:52:58;;;;;;;5.90;3.25;;;7.30;99.90;;;;;;5095028;28;20059;-45
2022/04/27 00:55:24;;;;;;;8.13;3.70;;;7.30;99.90;;;;;;5093277;28;20468;-47
2022/04/27 00:58:09;;;;;;;11.65;4.15;;;7.30;99.90;;;;;;5096786;28;20031;-46
2022/04/27 01:00:35;;;;;;;10.48;4.18;;;7.30;99.90;;;;;;5099835;28;20047;-48
2022/04/27 01:03:01;;;;;;;6.47;3.42;;;7.30;99.90;;;;;;5095285;28;20024;-46
2022/04/27 01:05:26;;;;;;;6.15;3.95;;;7.20;99.90;;;;;;5101195;28;20046;-47
2022/04/27 01:07:54;;;;;;;6.53;3.22;;;7.30;99.90;;;;;;5098130;28;20056;-46
2022/04/27 01:10:19;;;;;;;10.77;4.55;;;7.30;99.90;;;;;;5094923;28;20016;-47
2022/04/27 01:12:45;;;;;;;11.20;4.05;;;7.30;99.90;;;;;;5093752;28;20031;-46
2022/04/27 01:15:11;;;;;;;8.52;3.72;;;7.40;99.90;;;;;;5095031;28;20024;-46
2022/04/27 01:17:37;;;;;;;8.32;4.50;;;7.30;99.90;;;;;;5096818;28;20100;-36
2022/04/27 01:20:04;;;;;;;8.48;3.97;;;7.30;99.90;;;;;;5110950;28;20035;-33
2022/04/27 01:22:30;;;;;;;9.50;4.70;;;7.30;99.90;;;;;;5093629;28;20059;-29
2022/04/27 01:24:57;;;;;;;9.23;4.22;;;7.30;99.90;;;;;;5099854;28;20051;-38
2022/04/27 01:27:22;;;;;;;7.80;4.70;;;7.20;99.90;;;;;;5095226;28;20115;-29
2022/04/27 01:29:48;;;;;;;6.75;4.57;;;7.20;99.90;;;;;;5096365;28;20111;-32
2022/04/27 01:32:15;;;;;;;6.85;4.13;;;7.20;99.90;;;;;;5094368;28;20468;-30
2022/04/27 01:34:40;;;;;;;6.13;4.18;;;7.20;99.90;;;;;;5094573;28;20480;-48
2022/04/27 01:39:50;;;;;;;6.88;3.92;;;7.10;99.90;;;;;;5095088;28;20043;-45
2022/04/27 01:42:16;;;;;;;8.77;4.05;;;7.10;99.90;;;;;;5094045;28;20480;-29
2022/04/27 01:44:41;;;;;;;8.80;4.07;;;7.10;99.90;;;;;;5093177;28;20052;-30
2022/04/27 01:47:07;;;;;;;12.80;4.57;;;7.00;99.90;;;;;;5116396;28;20032;-33
2022/04/27 01:49:32;;;;;;;7.45;4.60;;;7.00;99.90;;;;;;5103553;28;20028;-32
2022/04/27 01:54:42;;;;;;;10.50;4.53;;;7.10;99.90;;;;;;5095821;28;20036;-46
2022/04/27 01:57:08;;;;;;;8.63;5.00;;;7.00;99.90;;;;;;5094107;28;20024;-36
2022/04/27 01:59:34;;;;;;;7.57;5.10;;;7.00;99.90;;;;;;5108237;28;20083;-37
2022/04/27 02:02:00;;;;;;;11.93;4.85;;;7.10;99.90;;;;;;5096935;28;20040;-30
2022/04/27 02:04:25;;;;;;;9.20;4.93;;;7.10;99.90;;;;;;5094794;28;20028;-28
2022/04/27 02:06:51;;;;;;;14.93;5.25;;;7.10;99.90;;;;;;5093874;28;20488;-40
2022/04/27 02:09:16;;;;;;;8.10;4.88;;;7.20;99.90;;;;;;5114479;28;20028;-46
2022/04/27 02:11:42;;;;;;;10.57;5.05;;;7.20;99.90;;;;;;5101535;28;20028;-46
2022/04/27 02:14:08;;;;;;;9.77;4.72;;;7.20;99.90;;;;;;5094789;28;20034;-45
2022/04/27 02:16:33;;;;;;;10.57;4.50;;;7.20;99.90;;;;;;5091937;28;20035;-46
2022/04/27 02:18:59;;;;;;;8.07;4.63;;;7.30;99.90;;;;;;5093406;28;20016;-45
2022/04/27 02:21:25;;;;;;;10.48;5.35;;;7.30;99.90;;;;;;5095207;28;20023;-46
2022/04/27 02:23:51;;;;;;;10.27;4.20;;;7.30;99.90;;;;;;5095250;28;20020;-47
2022/04/27 02:26:17;;;;;;;9.48;4.55;;;7.30;99.90;;;;;;5091780;28;20058;-48
2022/04/27 02:28:42;;;;;;;8.10;4.60;;;7.30;99.90;;;;;;5101217;28;20024;-46
2022/04/27 02:31:08;;;;;;;7.35;4.60;;;7.30;99.90;;;;;;5098511;28;20019;-46
2022/04/27 02:33:34;;;;;;;11.30;4.93;;;7.30;99.90;;;;;;5102590;28;20024;-47
2022/04/27 02:35:59;;;;;;;11.93;4.35;;;7.20;99.90;;;;;;5093962;28;20153;-46
2022/04/27 02:38:27;;;;;;;10.95;4.95;;;7.20;99.90;;;;;;5105105;28;20036;-36
2022/04/27 02:40:52;;;;;;;9.18;4.53;;;7.20;99.90;;;;;;5092700;28;20081;-35
2022/04/27 02:43:18;;;;;;;9.45;4.88;;;7.10;99.90;;;;;;5093813;28;20098;-36
2022/04/27 02:45:44;;;;;;;10.32;4.85;;;7.10;99.90;;;;;;5093968;28;20034;-36
2022/04/27 02:48:10;;;;;;;8.60;4.45;;;7.10;99.90;;;;;;5102439;28;20431;-36
2022/04/27 02:53:21;;;;;;;8.15;4.22;;;7.10;99.90;;;;;;5080893;28;20424;-37
2022/04/27 02:55:47;;;;;;;22.10;5.25;;;7.00;99.90;;;;;;5073907;28;20043;-31
2022/04/27 02:58:12;;;;;;;13.05;4.72;;;7.00;99.90;;;;;;5093290;28;20039;-36
2022/04/27 03:00:39;;;;;;;10.77;4.78;;;7.10;99.90;;;;;;5095544;28;20496;-36
2022/04/27 03:03:07;;;;;;;10.55;4.38;;;7.00;99.90;;;;;;5092736;28;20024;-29
2022/04/27 03:05:32;;;;;;;8.32;4.13;;;7.00;99.90;;;;;;5093795;28;20111;-28
2022/04/27 03:07:58;;;;;;;9.10;5.32;;;7.00;99.90;;;;;;5094471;28;20455;-29
2022/04/27 03:10:24;;;;;;;11.40;4.43;;;7.00;99.90;;;;;;5092148;28;20111;-31
2022/04/27 03:12:49;;;;;;;9.75;4.80;;;6.90;99.90;;;;;;5097388;28;20125;-29
2022/04/27 03:15:15;;;;;;;12.07;4.32;;;6.90;99.90;;;;;;5114744;28;20020;-29
2022/04/27 03:17:40;;;;;;;9.45;4.57;;;6.90;99.90;;;;;;5108702;28;20028;-29
2022/04/27 03:20:06;;;;;;;7.28;3.85;;;6.80;99.90;;;;;;5099006;28;20049;-30
2022/04/27 03:22:32;;;;;;;8.48;4.25;;;6.80;99.90;;;;;;5093145;28;20035;-29
2022/04/27 03:24:58;;;;;;;8.80;4.25;;;6.70;99.90;;;;;;5102683;28;20028;-32
2022/04/27 03:27:23;;;;;;;8.10;4.80;;;6.70;99.90;;;;;;5094542;28;20024;-46
2022/04/27 03:29:49;;;;;;;8.77;4.90;;;6.70;99.90;;;;;;5092878;28;20525;-36
2022/04/27 03:32:14;;;;;;;8.00;4.43;;;6.60;99.90;;;;;;5078373;28;20040;-35
2022/04/27 03:34:40;;;;;;;10.02;5.25;;;6.60;99.90;;;;;;5089283;28;20403;-36
2022/04/27 03:37:07;;;;;;;9.07;4.60;;;6.60;99.90;;;;;;5091256;28;20012;-36
2022/04/27 03:39:33;;;;;;;11.25;5.07;;;6.60;99.90;;;;;;5093679;28;20027;-35
2022/04/27 03:41:59;;;;;;;12.88;5.18;;;6.60;99.90;;;;;;5090096;28;20032;-36
2022/04/27 03:44:24;;;;;;;8.82;4.93;;;6.60;99.90;;;;;;5092857;28;20077;-34
2022/04/27 03:46:50;;;;;;;10.20;4.55;;;6.70;99.90;;;;;;5091910;28;20115;-37
2022/04/27 03:49:15;;;;;;;10.15;5.80;;;6.70;99.90;;;;;;5092753;28;20077;-37
2022/04/27 03:51:41;;;;;;;10.32;5.60;;;6.70;99.90;;;;;;5092673;28;20111;-35
2022/04/27 03:54:07;;;;;;;9.75;5.07;;;6.60;99.90;;;;;;5093092;28;20027;-47
2022/04/27 03:56:32;;;;;;;8.85;4.50;;;6.60;99.90;;;;;;5091721;28;20020;-36
2022/04/27 03:58:58;;;;;;;10.10;4.75;;;6.60;99.90;;;;;;5093407;28;20020;-36
2022/04/27 04:01:24;;;;;;;13.75;5.70;;;6.60;99.90;;;;;;5091137;28;20024;-37
2022/04/27 04:03:49;;;;;;;7.28;4.38;;;6.60;99.90;;;;;;5090067;28;20024;-36
2022/04/27 04:06:15;;;;;;;14.20;5.45;;;6.60;99.90;;;;;;5092613;28;20024;-43
2022/04/27 04:08:40;;;;;;;8.32;4.97;;;6.50;99.90;;;;;;5092674;28;20060;-36
2022/04/27 04:11:06;;;;;;;9.57;4.80;;;6.50;99.90;;;;;;5090642;28;20020;-36
2022/04/27 04:13:32;;;;;;;11.75;5.45;;;6.50;99.90;;;;;;5091628;28;20039;-35
2022/04/27 04:15:57;;;;;;;15.38;6.28;;;6.40;99.90;;;;;;5091902;28;20468;-28
2022/04/27 04:18:23;;;;;;;13.63;5.63;;;6.40;99.90;;;;;;5089897;28;20024;-29
2022/04/27 04:20:48;;;;;;;14.18;5.80;;;6.40;99.90;;;;;;5091022;28;20012;-28
2022/04/27 04:23:14;;;;;;;8.93;5.22;;;6.40;99.90;;;;;;5093535;28;20472;-29
2022/04/27 04:28:29;;;;;;;15.77;5.68;;;6.40;99.90;;;;;;5089850;28;20043;-29
2022/04/27 04:30:56;;;;;;;11.13;5.40;;;6.40;99.90;;;;;;5093027;28;20365;-29
2022/04/27 04:33:22;;;;;;;7.57;5.13;;;6.30;99.90;;;;;;5093144;28;20036;-30
2022/04/27 04:35:48;;;;;;;11.15;5.40;;;6.30;99.90;;;;;;5093052;28;20028;-29
2022/04/27 04:38:14;;;;;;;13.70;6.60;;;6.20;99.90;;;;;;5090645;28;20433;-28
2022/04/27 04:40:40;;;;;;;13.27;6.40;;;6.30;99.90;;;;;;5091975;28;20106;-33
2022/04/27 04:43:05;;;;;;;10.38;5.75;;;6.30;99.90;;;;;;5094087;28;20019;-32
2022/04/27 04:45:31;;;;;;;9.68;5.65;;;6.20;99.90;;;;;;5112051;28;20040;-29
2022/04/27 04:48:00;;;;;;;10.73;5.88;;;6.30;99.90;;;;;;5089786;28;20027;-34
2022/04/27 04:50:25;;;;;;;11.18;5.68;;;6.30;99.90;;;;;;5092070;28;20069;-29
2022/04/27 04:52:51;;;;;;;14.25;5.95;;;6.30;99.90;;;;;;5090640;28;20036;-32
2022/04/27 04:55:16;;;;;;;13.80;5.85;;;6.30;99.90;;;;;;5092043;28;20186;-32
2022/04/27 04:57:42;;;;;;;10.80;6.10;;;6.40;99.90;;;;;;5094069;28;20425;-28
2022/04/27 05:00:09;;;;;;;13.00;5.93;;;6.40;99.90;;;;;;5113251;28;20024;-28
2022/04/27 05:02:35;;;;;;;9.65;5.70;;;6.40;99.90;;;;;;5113355;28;20491;-30
2022/04/27 05:05:05;;;;;;;10.68;5.70;;;6.40;99.90;;;;;;5095735;28;20032;-30
2022/04/27 05:07:34;;;;;;;11.32;4.82;;;6.50;99.90;;;;;;5092098;28;20051;-30
2022/04/27 05:09:59;;;;;;;11.77;5.25;;;6.50;99.90;;;;;;5103244;28;20023;-29
2022/04/27 05:12:25;;;;;;;11.50;5.65;;;6.60;99.90;;;;;;5090850;28;20084;-46
2022/04/27 05:14:52;;;;;;;13.48;6.07;;;6.70;99.90;;;;;;5106142;28;20047;-36
2022/04/27 05:17:18;;;;;;;8.13;5.13;;;6.80;99.90;;;;;;5117293;28;20539;-36
2022/04/27 05:19:44;;;;;;;8.25;5.25;;;6.90;99.90;;;;;;5098307;28;20090;-36
2022/04/27 05:22:09;;;;;;;7.93;5.07;;;7.00;99.90;;;;;;5098039;28;20035;-37
2022/04/27 05:24:35;;;;;;;9.93;5.50;;;7.10;99.90;;;;;;5096438;28;20502;-37
2022/04/27 05:27:01;;;;;;;12.15;5.35;;;7.10;99.90;;;;;;5092785;28;20039;-31
2022/04/27 05:32:12;;;;;;;12.90;4.90;;;7.30;99.90;;;;;;5077940;28;20048;-45
2022/04/27 05:34:38;;;;;;;11.32;5.57;;;7.40;99.90;;;;;;5098413;28;20034;-37
2022/04/27 05:37:04;;;;;;;13.07;5.30;;;7.50;99.90;;;;;;5116482;28;20425;-36
2022/04/27 05:39:29;;;;;;;12.98;5.43;;;7.60;99.90;;;;;;5097487;28;20479;-37
2022/04/27 05:41:55;;;;;;;10.68;5.70;;;7.70;99.90;;;;;;5093927;28;20028;-38
2022/04/27 05:44:23;;;;;;;10.63;5.45;;;7.80;99.90;;;;;;5093168;28;20028;-34
2022/04/27 05:46:49;;;;;;;9.70;5.25;;;7.90;99.90;;;;;;5094501;28;20039;-28
2022/04/27 05:49:15;;;;;;;8.77;4.90;;;8.00;99.90;;;;;;5094600;28;20040;-28
2022/04/27 05:51:42;;;;;;;7.32;4.53;;;8.20;99.90;;;;;;5093085;28;20048;-31
2022/04/27 05:54:07;;;;;;;12.32;5.43;;;8.30;99.90;;;;;;5094459;28;20024;-31
2022/04/27 05:56:33;;;;;;;10.48;4.95;;;8.40;99.90;;;;;;5094831;28;20050;-31
2022/04/27 05:59:00;;;;;;;10.85;5.38;;;8.60;99.90;;;;;;5094903;28;20570;-33
2022/04/27 06:01:25;;;;;;;9.43;4.13;;;8.70;99.90;;;;;;5091556;28;20031;-29
2022/04/27 06:03:53;;;;;;;7.13;4.47;;;8.90;99.90;;;;;;5094884;28;20032;-31
2022/04/27 06:06:18;;;;;;;11.80;4.32;;;9.00;99.90;;;;;;5100911;28;20392;-29
2022/04/27 06:08:44;;;;;;;6.43;3.55;;;9.10;99.90;;;;;;5094242;28;20028;-29
2022/04/27 06:11:10;;;;;;;6.93;3.30;;;9.20;99.90;;;;;;5094525;28;20033;-29
2022/04/27 06:13:35;;;;;;;12.32;3.78;;;9.30;99.90;;;;;;5094159;28;20476;-42
2022/04/27 06:16:01;;;;;;;7.07;3.20;;;9.50;99.90;;;;;;5095648;28;20495;-29
2022/04/27 06:18:26;;;;;;;8.98;2.80;;;9.50;99.90;;;;;;5093402;28;20027;-29
2022/04/27 06:20:52;;;;;;;5.18;2.20;;;9.70;99.90;;;;;;5098477;28;20435;-32
2022/04/27 06:23:18;;;;;;;9.88;3.03;;;9.80;99.90;;;;;;5097403;28;20028;-29
2022/04/27 06:25:48;;;;;;;6.65;2.38;;;9.90;99.90;;;;;;5092259;28;20035;-32
2022/04/27 06:28:14;;;;;;;8.70;3.90;;;10.00;99.90;;;;;;5086044;28;20038;-35
2022/04/27 06:30:40;;;;;;;6.68;2.40;;;10.20;99.90;;;;;;5095065;28;20024;-47
2022/04/27 06:33:05;;;;;;;6.75;2.38;;;10.30;99.90;;;;;;5094961;28;20495;-36
2022/04/27 06:35:31;;;;;;;7.32;2.38;;;10.40;99.90;;;;;;5095031;28;20024;-37
2022/04/27 06:37:57;;;;;;;6.47;2.60;;;10.40;99.90;;;;;;5091442;28;20496;-36
2022/04/27 06:40:24;;;;;;;6.72;2.60;;;10.50;99.90;;;;;;5092279;28;20025;-36
2022/04/27 06:42:51;;;;;;;6.97;2.55;;;10.50;99.90;;;;;;5090603;28;20527;-36
2022/04/27 06:45:16;;;;;;;4.78;2.55;;;10.70;99.90;;;;;;5091444;28;20030;-34
2022/04/27 06:47:42;;;;;;;4.10;2.70;;;10.80;99.90;;;;;;5090646;28;20387;-37
2022/04/27 06:50:11;;;;;;;3.67;2.50;;;10.90;99.90;;;;;;5093903;28;20039;-36
2022/04/27 06:52:41;;;;;;;4.90;2.60;;;11.10;99.90;;;;;;5090793;28;20054;-35
2022/04/27 06:55:11;;;;;;;3.33;2.53;;;11.20;99.90;;;;;;5092075;28;20031;-36
2022/04/27 06:57:36;;;;;;;5.53;2.65;;;11.30;99.90;;;;;;5090949;28;20043;-36
2022/04/27 07:00:04;;;;;;;4.85;2.63;;;11.30;99.90;;;;;;5090028;28;20020;-36
2022/04/27 07:02:30;;;;;;;7.97;2.83;;;11.20;99.90;;;;;;5094463;28;20040;-36
2022/04/27 07:04:59;;;;;;;10.90;2.65;;;11.30;99.90;;;;;;5093731;28;20781;-37
2022/04/27 07:07:26;;;;;;;5.47;2.67;;;11.40;99.90;;;;;;5097360;28;20368;-37
2022/04/27 07:09:53;;;;;;;7.80;3.05;;;11.50;99.90;;;;;;5114722;28;20033;-29
2022/04/27 07:12:19;;;;;;;7.03;3.03;;;11.50;99.90;;;;;;5111201;28;20475;-33
2022/04/27 07:14:46;;;;;;;8.30;2.63;;;11.30;99.90;;;;;;5095407;28;20055;-29
2022/04/27 07:17:12;;;;;;;8.95;3.40;;;11.10;99.90;;;;;;5102972;28;20031;-37
2022/04/27 07:19:37;;;;;;;2.80;2.33;;;11.10;99.90;;;;;;5101477;28;20032;-32
2022/04/27 07:22:03;;;;;;;5.22;2.70;;;11.00;99.90;;;;;;5092703;28;20025;-30
2022/04/27 07:24:29;;;;;;;4.90;2.83;;;11.00;99.90;;;;;;5113373;28;20039;-30
2022/04/27 07:26:56;;;;;;;4.93;2.80;;;11.00;99.90;;;;;;5097411;28;20020;-28
2022/04/27 07:29:22;;;;;;;4.63;3.05;;;10.90;99.90;;;;;;5091699;28;20050;-44
2022/04/27 07:31:47;;;;;;;5.63;2.72;;;10.80;99.90;;;;;;5100065;28;20027;-45
2022/04/27 07:34:13;;;;;;;6.22;3.80;;;10.80;99.90;;;;;;5090171;28;20107;-35
2022/04/27 07:36:39;;;;;;;4.65;3.10;;;10.90;99.90;;;;;;5100502;28;20048;-35
2022/04/27 07:39:05;;;;;;;4.43;2.67;;;10.90;99.90;;;;;;5088547;28;20044;-35
2022/04/27 07:41:32;;;;;;;6.40;3.08;;;10.90;99.90;;;;;;5103357;28;20123;-40
2022/04/27 07:43:57;;;;;;;6.82;3.08;;;10.90;99.90;;;;;;5111367;28;20361;-35
2022/04/27 07:46:23;;;;;;;5.10;2.78;;;10.90;99.90;;;;;;5107115;28;20111;-35
2022/04/27 07:48:51;;;;;;;8.35;3.03;;;10.90;99.90;;;;;;5109557;28;20030;-35
2022/04/27 07:51:17;;;;;;;;;;;10.90;99.90;;;;;;5097129;28;20029;-36
2022/04/27 07:53:42;;;;;;;7.88;3.00;;;11.00;99.90;;;;;;5099841;28;20395;-36
2022/04/27 07:56:08;;;;;;;4.78;3.00;;;11.00;99.90;;;;;;5112958;28;20028;-42
2022/04/27 07:58:34;;;;;;;3.35;2.67;;;11.10;99.90;;;;;;5113184;28;20483;-36
2022/04/27 08:01:01;;;;;;;5.78;2.88;;;11.10;99.90;;;;;;5104655;28;20020;-36
2022/04/27 08:03:26;;;;;;;9.50;3.75;;;11.10;99.90;;;;;;5100123;28;20531;-35
2022/04/27 08:05:52;;;;;;;5.00;2.97;;;11.00;99.90;;;;;;5106261;28;20066;-37
2022/04/27 08:08:17;;;;;;;3.47;3.17;;;11.10;99.90;;;;;;5098004;28;20032;-36
2022/04/27 08:10:43;;;;;;;5.53;3.22;;;11.30;99.90;;;;;;5109392;28;20027;-32
2022/04/27 08:13:09;;;;;;;7.93;3.22;;;11.30;99.90;;;;;;5108971;28;20127;-29
2022/04/27 08:15:35;;;;;;;7.65;2.88;;;11.20;99.90;;;;;;5110995;28;20066;-30
2022/04/27 08:18:06;;;;;;;7.68;3.40;;;11.20;99.90;;;;;;5111689;28;20016;-28
2022/04/27 08:23:32;;;;;;;5.10;2.10;;;11.30;99.90;;;;;;5109981;28;20042;-28
2022/04/27 08:26:01;;;;;;;5.80;2.47;;;11.40;99.90;;;;;;5101471;28;20476;-31
2022/04/27 08:28:27;;;;;;;3.30;2.55;;;11.40;99.90;;;;;;5110991;28;20019;-28
2022/04/27 08:30:53;;;;;;;7.90;2.42;;;11.30;99.90;;;;;;5113517;28;20028;-31
2022/04/27 08:33:19;;;;;;;3.67;2.42;;;11.50;99.90;;;;;;5106628;28;20122;-28
2022/04/27 08:35:45;;;;;;;4.20;2.03;;;11.60;99.90;;;;;;5100432;28;20027;-30
2022/04/27 08:38:11;;;;;;;3.03;2.00;;;11.80;99.90;;;;;;5112146;28;20487;-33
2022/04/27 08:40:44;;;;;;;4.88;2.47;;;11.80;99.90;;;;;;5109440;28;20034;-28
2022/04/27 08:43:10;;;;;;;8.05;2.50;;;11.80;99.90;;;;;;5112307;28;20031;-29
2022/04/27 08:45:37;;;;;;;6.47;2.70;;;11.90;99.90;;;;;;5112302;28;20031;-30
2022/04/27 08:48:04;;;;;;;2.47;1.88;;;12.10;99.90;;;;;;5110812;28;20035;-29
2022/04/27 08:50:30;;;;;;;5.20;2.10;;;12.10;99.90;;;;;;5114268;28;20034;-32
2022/04/27 08:52:56;;;;;;;3.03;1.67;;;12.00;99.90;;;;;;5113243;28;20532;-30
2022/04/27 08:55:23;;;;;;;2.72;2.05;;;12.00;99.90;;;;;;5114500;28;20023;-29
2022/04/27 08:57:49;;;;;;;4.70;2.00;;;11.90;99.90;;;;;;5114657;28;20029;-31
2022/04/27 09:00:16;;;;;;;2.05;1.67;;;11.80;99.90;;;;;;5116459;28;20114;-29
2022/04/27 09:02:42;;;;;;;2.80;1.77;;;11.80;99.90;;;;;;5098189;28;20056;-32
2022/04/27 09:05:21;;;;;;;5.32;2.13;;;11.90;99.90;;;;;;5110094;28;20040;-31
2022/04/27 09:07:52;;;;;;;3.95;1.23;;;11.90;99.90;;;;;;5116140;28;20034;-30
2022/04/27 09:10:24;;;;;;;3.88;1.70;;;12.00;99.90;;;;;;5082523;28;20494;-34
2022/04/27 09:12:55;;;;;;;3.10;1.38;;;12.00;99.90;;;;;;5102635;28;20476;-33
2022/04/27 09:15:25;;;;;;;2.22;1.50;;;12.10;99.90;;;;;;5096752;28;20057;-29
2022/04/27 09:20:47;;;;;;;6.00;2.03;;;12.30;99.90;;;;;;5111447;28;20035;-30
2022/04/27 09:23:32;;;;;;;4.05;2.00;;;12.50;99.90;;;;;;5098481;28;20118;-31
2022/04/27 09:26:22;;;;;;;5.28;1.95;;;12.50;99.90;;;;;;5112728;28;20039;-32
2022/04/27 09:28:48;;;;;;;4.40;1.63;;;12.60;99.90;;;;;;5114500;28;20521;-32
2022/04/27 09:31:27;;;;;;;3.45;1.60;;;12.60;99.90;;;;;;5107578;28;20100;-47
2022/04/27 09:34:27;;;;;;;5.88;2.42;;;12.60;99.90;;;;;;5098439;28;20032;-46
2022/04/27 09:36:54;;;;;;;2.53;1.25;;;12.70;99.90;;;;;;5091046;28;20093;-37
2022/04/27 09:39:26;;;;;;;2.53;1.35;;;12.60;99.90;;;;;;5103778;28;20036;-37
2022/04/27 09:42:01;;;;;;;1.95;1.40;;;12.80;99.90;;;;;;5111050;28;20023;-37
2022/04/27 09:44:28;;;;;;;6.97;1.45;;;12.70;99.90;;;;;;5115550;28;20019;-38
2022/04/27 09:46:53;;;;;;;3.58;1.13;;;12.70;99.90;;;;;;5095622;28;20074;-38
2022/04/27 09:49:19;;;;;;;2.67;1.33;;;12.70;99.90;;;;;;5108889;28;20015;-37
2022/04/27 09:51:50;;;;;;;5.57;1.25;;;12.80;99.90;;;;;;5109178;28;20034;-36
2022/04/27 09:54:21;;;;;;;1.10;1.08;;;13.10;99.90;;;;;;5115672;28;20379;-37
2022/04/27 09:56:54;;;;;;;2.53;1.50;;;13.30;99.90;;;;;;5114646;28;20496;-37
2022/04/27 09:59:27;;;;;;;5.40;1.15;;;13.50;99.90;;;;;;5115283;28;20443;-36
2022/04/27 10:01:57;;;;;;;2.88;1.63;;;14.00;99.20;;;;;;5113626;28;20046;-36
2022/04/27 10:04:26;;;;;;;5.03;1.48;;;14.10;99.00;;;;;;5111498;28;20028;-37
2022/04/27 10:06:52;;;;;;;4.00;1.15;;;14.40;98.90;;;;;;5112717;28;20160;-37
2022/04/27 10:09:18;;;;;;;2.70;1.10;;;14.60;98.60;;;;;;5100393;28;20028;-36
2022/04/27 10:11:44;;;;;;;4.30;1.13;;;14.70;98.60;;;;;;5115839;28;20019;-36
2022/04/27 10:14:11;;;;;;;5.60;1.52;;;14.60;98.80;;;;;;5114878;28;20019;-36
2022/04/27 10:16:37;;;;;;;2.80;1.40;;;14.20;99.60;;;;;;5112765;28;20169;-37
2022/04/27 10:19:07;;;;;;;2.80;1.30;;;14.20;99.10;;;;;;5111197;28;20099;-31
2022/04/27 10:21:57;;;;;;;3.75;1.45;;;13.80;98.70;;;;;;5095075;28;20034;-38
2022/04/27 10:24:35;;;;;;;2.33;2.03;;;13.90;99.70;;;;;;5110448;28;20413;-38
2022/04/27 10:27:20;;;;;;;3.15;1.17;;;14.10;99.60;;;;;;5106069;28;20459;-38
2022/04/27 10:29:57;;;;;;;3.40;1.45;;;14.40;99.60;;;;;;5105287;28;20036;-34
2022/04/27 10:32:38;;;;;;;2.72;1.60;;;14.60;99.80;;;;;;5095211;28;20028;-37
2022/04/27 10:35:14;;;;;;;2.05;1.45;;;14.80;98.80;;;;;;5098341;28;20535;-36
2022/04/27 10:38:22;;;;;;;1.65;1.50;;;15.10;98.80;;;;;;5103629;28;20047;-36
2022/04/27 10:40:48;;;;;;;8.05;1.75;;;15.60;96.60;;;;;;5104979;28;20118;-38
2022/04/27 10:43:31;;;;;;;2.92;1.42;;;15.90;96.40;;;;;;5106387;28;20095;-38
2022/04/27 10:45:56;;;;;;;5.28;1.38;;;15.80;97.30;;;;;;5094884;28;20044;-37
2022/04/27 10:48:24;;;;;;;1.42;1.17;;;15.90;96.10;;;;;;5099320;28;20027;-35
2022/04/27 10:51:02;;;;;;;2.13;1.15;;;15.70;96.60;;;;;;5113949;28;20409;-38
2022/04/27 10:53:29;;;;;;;5.93;1.67;;;15.30;96.90;;;;;;5105787;28;20165;-37
2022/04/27 10:55:59;;;;;;;4.45;1.67;;;14.80;97.30;;;;;;5092827;28;20023;-37
2022/04/27 11:01:12;;;;;;;4.75;1.08;;;14.30;98.60;;;;;;5094731;28;20035;-38
2022/04/27 11:03:41;;;;;;;2.72;1.50;;;13.80;98.50;;;;;;5099632;28;20020;-38
2022/04/27 11:06:12;;;;;;;2.10;1.50;;;13.50;98.70;;;;;;5094239;28;20023;-36
2022/04/27 11:08:53;;;;;;;5.90;1.70;;;13.40;98.70;;;;;;5093520;28;20039;-36
2022/04/27 11:11:22;;;;;;;3.03;1.77;;;13.60;99.10;;;;;;5113259;28;20027;-38
2022/04/27 11:13:49;;;;;;;3.55;1.50;;;13.70;98.10;;;;;;5113761;28;20027;-37
2022/04/27 11:16:15;;;;;;;4.15;1.50;;;13.80;98.30;;;;;;5114580;28;20046;-37
2022/04/27 11:18:57;;;;;;;1.55;1.17;;;13.70;98.00;;;;;;5103124;28;20020;-39
2022/04/27 11:21:30;;;;;;;5.53;1.33;;;13.60;98.90;;;;;;5098322;28;20479;-38
2022/04/27 11:24:00;;;;;;;3.67;1.30;;;13.60;98.70;;;;;;5084584;28;20107;-38
2022/04/27 11:26:27;;;;;;;1.48;1.35;;;13.60;97.90;;;;;;5100957;28;20532;-38
2022/04/27 11:28:54;;;;;;;1.85;1.50;;;13.60;98.20;;;;;;5105560;28;20020;-37
2022/04/27 11:31:20;;;;;;;1.95;1.20;;;13.50;97.60;;;;;;5114665;28;20425;-38
2022/04/27 11:33:45;;;;;;;1.75;1.27;;;13.20;97.70;;;;;;5101849;28;20068;-42
2022/04/27 11:36:24;;;;;;;5.55;1.67;;;13.40;98.00;;;;;;5105169;28;20028;-36
2022/04/27 11:38:50;;;;;;;4.70;1.40;;;13.40;98.10;;;;;;5104606;28;20043;-56
2022/04/27 11:41:23;;;;;;;7.25;2.15;;;13.50;98.90;;;;;;5111928;28;20540;-37
2022/04/27 11:43:50;;;;;;;3.72;1.67;;;13.30;99.90;;;;;;5100444;28;20039;-36
2022/04/27 11:46:17;;;;;;;5.10;2.28;;;13.30;99.90;;;;;;5097187;28;20091;-38
2022/04/27 11:48:49;;;;;;;7.80;2.00;;;13.00;99.90;;;;;;5091839;28;20028;-38
2022/04/27 11:51:15;;;;;;;4.35;1.90;;;12.90;99.90;;;;;;5085938;28;20119;-37
2022/04/27 11:53:47;;;;;;;7.68;2.03;;;12.90;99.90;;;;;;5095395;28;20028;-36
2022/04/27 11:56:13;;;;;;;8.30;1.98;;;12.90;99.90;;;;;;5095560;28;20031;-36
2022/04/27 11:58:40;;;;;;;8.48;1.77;;;12.70;99.90;;;;;;5093083;28;20691;-36
2022/04/27 12:01:05;;;;;;;6.10;2.60;;;12.70;99.90;;;;;;5091018;28;20016;-36
2022/04/27 12:03:41;;;;;;;4.32;1.50;;;12.70;99.90;;;;;;5091740;28;20477;-35
2022/04/27 12:06:07;;;;;;;5.95;2.08;;;12.70;99.90;;;;;;5093149;28;20023;-37
2022/04/27 12:08:33;;;;;;;8.65;2.70;;;12.70;99.90;;;;;;5092616;28;20062;-34
2022/04/27 12:11:01;;;;;;;5.78;2.42;;;12.80;99.90;;;;;;5096975;28;20024;-36
2022/04/27 12:13:26;;;;;;;;;;;12.80;99.90;;;;;;5096380;28;20472;-36
2022/04/27 12:15:54;;;;;;;4.45;1.70;;;12.80;99.90;;;;;;5095256;28;19908;-35
2022/04/27 12:18:28;;;;;;;9.82;2.70;;;13.00;99.90;;;;;;5093666;28;20114;-35
2022/04/27 12:20:58;;;;;;;3.22;1.80;;;13.10;99.90;;;;;;5094551;28;20031;-35
2022/04/27 12:23:29;;;;;;;8.10;1.98;;;13.20;99.90;;;;;;5096370;28;20057;-37
2022/04/27 12:25:57;;;;;;;7.32;2.10;;;13.10;99.90;;;;;;5096979;28;20786;-37
2022/04/27 12:28:24;;;;;;;6.15;2.13;;;13.00;99.90;;;;;;5095430;28;20470;-36
2022/04/27 12:30:54;;;;;;;7.38;1.70;;;13.10;99.90;;;;;;5097177;28;20027;-33
2022/04/27 12:33:25;;;;;;;3.58;1.63;;;13.30;99.90;;;;;;5094175;28;20032;-37
2022/04/27 12:38:58;;;;;;;8.27;2.17;;;13.50;99.90;;;;;;5091471;28;20111;-29
2022/04/27 12:41:34;;;;;;;7.95;1.73;;;13.70;99.90;;;;;;5091798;28;20101;-29
2022/04/27 12:44:05;;;;;;;5.10;1.23;;;14.00;99.90;;;;;;5095639;28;20040;-37
2022/04/27 12:46:30;;;;;;;2.50;1.63;;;14.20;99.60;;;;;;5098106;28;20028;-31
2022/04/27 12:49:05;;;;;;;7.90;2.05;;;14.10;99.90;;;;;;5095779;28;20502;-31
2022/04/27 12:51:34;;;;;;;4.25;2.38;;;14.00;99.90;;;;;;5097326;28;20064;-33
2022/04/27 12:54:00;;;;;;;5.45;1.67;;;14.30;99.30;;;;;;5094639;28;20035;-39
2022/04/27 12:56:36;;;;;;;5.85;1.33;;;14.50;99.90;;;;;;5098839;28;20047;-32
2022/04/27 12:59:06;;;;;;;6.20;1.80;;;14.50;99.70;;;;;;5090699;28;20028;-33
2022/04/27 13:01:32;;;;;;;7.63;1.48;;;14.00;99.30;;;;;;5098730;28;20059;-30
2022/04/27 13:03:58;;;;;;;4.38;1.60;;;14.20;99.90;;;;;;5093675;28;20069;-47
2022/04/27 13:06:24;;;;;;;6.00;2.22;;;14.60;99.70;;;;;;5095173;28;20435;-30
2022/04/27 13:08:50;;;;;;;2.88;1.65;;;15.00;99.90;;;;;;5095320;28;20047;-31
2022/04/27 13:14:02;;;;;;;2.90;1.48;;;15.40;98.90;;;;;;5094856;28;20058;-30
2022/04/27 13:16:27;;;;;;;3.28;1.67;;;15.40;98.00;;;;;;5095747;28;20065;-37
2022/04/27 13:18:55;;;;;;;3.40;1.20;;;15.10;98.10;;;;;;5095604;28;20028;-29
2022/04/27 13:21:21;;;;;;;3.53;1.15;;;14.80;98.20;;;;;;5096771;28;20023;-29